createdAt,value
2023-04-21T00:00:02.408Z,98850.91
2023-04-21T00:02:31.965Z,98845.06
2023-04-21T00:05:02.526Z,98847.63
2023-04-21T00:07:30.915Z,98833.91
2023-04-21T00:10:00.684Z,98834.88
2023-04-21T00:12:29.152Z,98838.16
2023-04-21T00:14:57.321Z,98832.88
2023-04-21T00:17:25.758Z,98829.28
2023-04-21T00:19:54.723Z,98825.94
2023-04-21T00:22:23.492Z,98830.38
2023-04-21T00:24:52.112Z,98835.75
2023-04-21T00:27:21.954Z,98837.09
2023-04-21T00:29:50.299Z,98836.22
2023-04-21T00:32:19.911Z,98836.38
2023-04-21T00:34:48.826Z,98841.50
2023-04-21T00:37:17.179Z,98841.09
2023-04-21T00:39:45.695Z,98848.66
2023-04-21T00:42:17.154Z,98847.88
2023-04-21T00:44:47.333Z,98848.84
2023-04-21T00:47:18.289Z,98850.06
2023-04-21T00:49:47.331Z,98856.56
2023-04-21T00:52:18.731Z,98858.72
2023-04-21T00:54:47.794Z,98848.97
2023-04-21T00:57:17.843Z,98852.84
2023-04-21T00:59:47.874Z,98841.81
2023-04-21T01:02:17.137Z,98850.50
2023-04-21T01:04:47.371Z,98845.75
2023-04-21T01:07:16.072Z,98847.59
2023-04-21T01:09:44.423Z,98841.47
2023-04-21T01:12:14.040Z,98841.72
2023-04-21T01:14:44.615Z,98838.31
2023-04-21T01:17:14.358Z,98841.47
2023-04-21T01:19:44.198Z,98849.66
2023-04-21T01:22:15.475Z,98844.59
2023-04-21T01:24:45.668Z,98856.75
2023-04-21T01:27:15.780Z,98856.56
2023-04-21T01:29:46.959Z,98850.53
2023-04-21T01:32:19.428Z,98855.06
2023-04-21T01:34:48.322Z,98859.94
2023-04-21T01:37:20.694Z,98862.78
2023-04-21T01:39:52.410Z,98862.50
2023-04-21T01:42:22.134Z,98862.69
2023-04-21T01:44:53.860Z,98865.13
2023-04-21T01:47:22.898Z,98875.03
2023-04-21T01:49:51.827Z,98871.06
2023-04-21T01:52:21.963Z,98868.63
2023-04-21T01:54:50.757Z,98858.81
2023-04-21T01:57:19.598Z,98852.78
2023-04-21T01:59:48.494Z,98850.78
2023-04-21T02:02:16.688Z,98854.09
2023-04-21T02:04:44.869Z,98853.25
2023-04-21T02:07:13.369Z,98850.97
2023-04-21T02:09:46.048Z,98850.97
2023-04-21T02:12:14.463Z,98855.13
2023-04-21T02:14:42.818Z,98857.75
2023-04-21T02:17:13.707Z,98856.63
2023-04-21T02:19:43.635Z,98855.78
2023-04-21T02:22:13.187Z,98854.47
2023-04-21T02:24:43.745Z,98855.69
2023-04-21T02:27:12.043Z,98851.63
2023-04-21T02:29:40.383Z,98843.44
2023-04-21T02:32:22.237Z,98850.41
2023-04-21T02:34:53.514Z,98847.09
2023-04-21T02:37:22.393Z,98849.47
2023-04-21T02:39:52.546Z,98847.75
2023-04-21T02:42:20.678Z,98850.50
2023-04-21T02:44:49.113Z,98847.88
2023-04-21T02:47:17.904Z,98850.31
2023-04-21T02:49:46.408Z,98848.03
2023-04-21T02:52:15.439Z,98850.59
2023-04-21T02:54:43.893Z,98849.47
2023-04-21T02:57:13.614Z,98851.22
2023-04-21T02:59:43.179Z,98863.31
2023-04-21T03:02:11.723Z,98859.44
2023-04-21T03:04:40.095Z,98855.00
2023-04-21T03:07:13.465Z,98855.28
2023-04-21T03:09:42.171Z,98860.66
2023-04-21T03:12:10.586Z,98854.06
2023-04-21T03:14:40.612Z,98849.56
2023-04-21T03:17:10.399Z,98855.47
2023-04-21T03:19:38.654Z,98844.81
2023-04-21T03:22:06.759Z,98857.47
2023-04-21T03:24:35.213Z,98857.66
2023-04-21T03:27:03.292Z,98860.28
2023-04-21T03:29:31.837Z,98855.66
2023-04-21T03:32:02.051Z,98846.81
2023-04-21T03:34:30.556Z,98847.75
2023-04-21T03:36:58.596Z,98850.31
2023-04-21T03:39:27.300Z,98851.63
2023-04-21T03:41:55.674Z,98844.38
2023-04-21T03:44:27.166Z,98852.63
2023-04-21T03:46:55.305Z,98848.31
2023-04-21T03:49:25.090Z,98845.47
2023-04-21T03:51:53.725Z,98844.34
2023-04-21T03:54:22.166Z,98853.94
2023-04-21T03:56:52.972Z,98847.63
2023-04-21T03:59:21.810Z,98849.81
2023-04-21T04:01:50.101Z,98848.97
2023-04-21T04:04:18.857Z,98850.47
2023-04-21T04:06:48.703Z,98853.94
2023-04-21T04:09:20.154Z,98853.69
2023-04-21T04:11:48.504Z,98847.97
2023-04-21T04:14:16.648Z,98846.09
2023-04-21T04:16:47.682Z,98849.66
2023-04-21T04:19:16.347Z,98836.44
2023-04-21T04:21:44.804Z,98846.19
2023-04-21T04:24:16.073Z,98846.75
2023-04-21T04:26:44.606Z,98851.19
2023-04-21T04:29:14.095Z,98847.88
2023-04-21T04:31:42.508Z,98851.19
2023-04-21T04:34:11.568Z,98843.00
2023-04-21T04:36:39.812Z,98845.63
2023-04-21T04:39:09.661Z,98844.00
2023-04-21T04:41:40.068Z,98843.16
2023-04-21T04:44:09.272Z,98841.75
2023-04-21T04:46:37.697Z,98840.41
2023-04-21T04:49:06.509Z,98843.16
2023-04-21T04:51:34.765Z,98845.59
2023-04-21T04:54:02.918Z,98848.44
2023-04-21T04:56:32.068Z,98845.69
2023-04-21T04:59:01.961Z,98849.19
2023-04-21T05:01:30.954Z,98842.66
2023-04-21T05:03:59.789Z,98854.47
2023-04-21T05:06:28.725Z,98851.03
2023-04-21T05:08:56.769Z,98848.63
2023-04-21T05:11:24.984Z,98850.09
2023-04-21T05:13:53.140Z,98847.47
2023-04-21T05:16:22.902Z,98850.53
2023-04-21T05:18:54.157Z,98848.72
2023-04-21T05:21:27.898Z,98847.88
2023-04-21T05:23:56.421Z,98843.25
2023-04-21T05:26:27.808Z,98850.13
2023-04-21T05:28:57.230Z,98849.19
2023-04-21T05:31:27.633Z,98845.69
2023-04-21T05:33:56.331Z,98844.84
2023-04-21T05:36:25.990Z,98854.81
2023-04-21T05:38:55.387Z,98844.34
2023-04-21T05:41:24.156Z,98844.34
2023-04-21T05:43:53.612Z,98844.38
2023-04-21T05:46:22.042Z,98848.69
2023-04-21T05:48:51.898Z,98847.53
2023-04-21T05:51:20.214Z,98841.72
2023-04-21T05:53:49.363Z,98841.72
2023-04-21T05:56:17.971Z,98840.56
2023-04-21T05:58:46.139Z,98838.69
2023-04-21T06:01:15.633Z,98850.00
2023-04-21T06:03:43.967Z,98855.41
2023-04-21T06:06:15.265Z,98849.56
2023-04-21T06:08:43.866Z,98849.50
2023-04-21T06:11:12.024Z,98840.19
2023-04-21T06:13:41.711Z,98832.19
2023-04-21T06:16:11.878Z,98827.50
2023-04-21T06:18:40.260Z,98834.72
2023-04-21T06:21:11.504Z,98827.72
2023-04-21T06:23:42.731Z,98832.00
2023-04-21T06:26:11.138Z,98839.38
2023-04-21T06:28:42.017Z,98827.00
2023-04-21T06:31:15.365Z,98830.91
2023-04-21T06:33:43.718Z,98834.84
2023-04-21T06:36:12.250Z,98840.88
2023-04-21T06:38:43.408Z,98834.41
2023-04-21T06:41:11.791Z,98843.31
2023-04-21T06:43:39.900Z,98841.91
2023-04-21T06:46:08.077Z,98840.78
2023-04-21T06:48:38.430Z,98838.03
2023-04-21T06:51:06.889Z,98839.94
2023-04-21T06:53:35.145Z,98830.03
2023-04-21T06:56:05.075Z,98829.34
2023-04-21T06:58:33.264Z,98822.34
2023-04-21T07:01:02.133Z,98821.69
2023-04-21T07:03:30.293Z,98817.97
2023-04-21T07:05:58.866Z,98816.81
2023-04-21T07:08:27.318Z,98818.88
2023-04-21T07:10:55.635Z,98816.56
2023-04-21T07:13:25.518Z,98814.97
2023-04-21T07:15:54.170Z,98819.34
2023-04-21T07:18:22.183Z,98811.81
2023-04-21T07:20:51.214Z,98807.16
2023-04-21T07:23:19.421Z,98812.84
2023-04-21T07:25:47.780Z,98811.13
2023-04-21T07:28:16.372Z,98820.75
2023-04-21T07:30:47.488Z,98822.78
2023-04-21T07:33:15.896Z,98825.63
2023-04-21T07:35:44.655Z,98821.06
2023-04-21T07:38:12.817Z,98822.97
2023-04-21T07:40:41.323Z,98821.06
2023-04-21T07:43:09.415Z,98817.19
2023-04-21T07:45:37.839Z,98804.97
2023-04-21T07:48:09.747Z,98801.75
2023-04-21T07:50:38.441Z,98809.88
2023-04-21T07:53:06.542Z,98803.78
2023-04-21T07:55:34.911Z,98797.59
2023-04-21T07:58:05.176Z,98801.66
2023-04-21T08:00:33.340Z,98797.13
2023-04-21T08:03:01.818Z,98807.19
2023-04-21T08:05:36.678Z,98802.94
2023-04-21T08:08:07.705Z,98805.81
2023-04-21T08:10:36.248Z,98808.16
2023-04-21T08:13:06.561Z,98803.72
2023-04-21T08:15:35.528Z,98810.13
2023-04-21T08:18:05.074Z,98805.44
2023-04-21T08:20:35.208Z,98802.47
2023-04-21T08:23:04.584Z,98793.91
2023-04-21T08:25:33.836Z,98787.72
2023-04-21T08:28:02.730Z,98793.03
2023-04-21T08:30:31.243Z,98797.06
2023-04-21T08:32:59.675Z,98794.41
2023-04-21T08:35:27.783Z,98786.72
2023-04-21T08:37:57.508Z,98784.25
2023-04-21T08:40:31.222Z,98790.91
2023-04-21T08:42:59.584Z,98782.16
2023-04-21T08:45:29.716Z,98775.47
2023-04-21T08:48:00.403Z,98771.66
2023-04-21T08:50:30.725Z,98779.91
2023-04-21T08:53:00.590Z,98774.97
2023-04-21T08:55:31.475Z,98766.72
2023-04-21T08:58:00.251Z,98773.22
2023-04-21T09:00:28.977Z,98768.38
2023-04-21T09:03:01.255Z,98764.53
2023-04-21T09:05:32.075Z,98766.84
2023-04-21T09:08:11.760Z,98761.03
2023-04-21T09:10:47.115Z,98764.44
2023-04-21T09:13:16.338Z,98763.63
2023-04-21T09:15:48.119Z,98764.38
2023-04-21T09:18:17.942Z,98760.41
2023-04-21T09:20:48.234Z,98767.31
2023-04-21T09:23:18.600Z,98768.53
2023-04-21T09:25:47.470Z,98767.63
2023-04-21T09:28:16.616Z,98768.66
2023-04-21T09:30:45.262Z,98771.72
2023-04-21T09:33:28.871Z,98765.63
2023-04-21T09:36:03.032Z,98756.06
2023-04-21T09:38:33.969Z,98763.38
2023-04-21T09:41:02.660Z,98755.16
2023-04-21T09:43:32.248Z,98752.06
2023-04-21T09:46:03.955Z,98746.25
2023-04-21T09:48:35.922Z,98753.75
2023-04-21T09:51:22.780Z,98742.41
2023-04-21T09:53:59.736Z,98740.41
2023-04-21T09:56:31.889Z,98745.63
2023-04-21T09:59:02.983Z,98751.94
2023-04-21T10:01:32.274Z,98748.75
2023-04-21T10:04:01.263Z,98751.84
2023-04-21T10:06:30.216Z,98748.91
2023-04-21T10:09:00.442Z,98747.94
2023-04-21T10:11:28.738Z,98747.28
2023-04-21T10:13:56.837Z,98752.25
2023-04-21T10:16:26.776Z,98740.84
2023-04-21T10:18:55.008Z,98750.25
2023-04-21T10:21:24.625Z,98747.94
2023-04-21T10:23:54.858Z,98744.66
2023-04-21T10:26:27.418Z,98743.97
2023-04-21T10:28:57.711Z,98740.50
2023-04-21T10:31:31.839Z,98733.94
2023-04-21T10:34:30.656Z,98739.59
2023-04-21T10:37:15.718Z,98732.25
2023-04-21T10:39:57.428Z,98724.88
2023-04-21T10:42:37.266Z,98723.09
2023-04-21T10:45:11.929Z,98721.94
2023-04-21T10:47:49.406Z,98716.34
2023-04-21T10:50:26.046Z,98710.84
2023-04-21T10:52:57.391Z,98703.84
2023-04-21T10:55:31.483Z,98704.56
2023-04-21T10:58:06.541Z,98694.53
2023-04-21T11:00:34.894Z,98706.03
2023-04-21T11:03:05.470Z,98702.28
2023-04-21T11:05:40.723Z,98695.09
2023-04-21T11:08:11.537Z,98691.72
2023-04-21T11:11:00.642Z,98693.28
2023-04-21T11:13:33.912Z,98698.50
2023-04-21T11:16:07.673Z,98692.84
2023-04-21T11:18:40.654Z,98688.22
2023-04-21T11:21:16.165Z,98693.28
2023-04-21T11:23:50.256Z,98678.47
2023-04-21T11:26:20.242Z,98683.66
2023-04-21T11:28:52.640Z,98680.09
2023-04-21T11:31:21.079Z,98674.72
2023-04-21T11:33:49.962Z,98674.56
2023-04-21T11:36:18.156Z,98663.13
2023-04-21T11:38:46.660Z,98665.28
2023-04-21T11:41:22.405Z,98666.84
2023-04-21T11:43:52.357Z,98658.44
2023-04-21T11:46:25.937Z,98654.09
2023-04-21T11:49:01.779Z,98656.69
2023-04-21T11:51:35.518Z,98658.81
2023-04-21T11:54:05.954Z,98656.72
2023-04-21T11:56:37.660Z,98658.50
2023-04-21T11:59:12.909Z,98659.22
2023-04-21T12:01:44.878Z,98661.69
2023-04-21T12:04:16.540Z,98644.09
2023-04-21T12:06:45.885Z,98647.66
2023-04-21T12:09:20.284Z,98651.50
2023-04-21T12:11:50.312Z,98652.81
2023-04-21T12:14:21.414Z,98656.81
2023-04-21T12:16:51.550Z,98655.63
2023-04-21T12:19:36.301Z,98657.22
2023-04-21T12:22:09.222Z,98656.47
2023-04-21T12:24:37.560Z,98651.16
2023-04-21T12:27:07.081Z,98651.59
2023-04-21T12:29:38.086Z,98647.56
2023-04-21T12:32:06.852Z,98632.31
2023-04-21T12:34:35.498Z,98637.47
2023-04-21T12:37:04.601Z,98641.03
2023-04-21T12:39:33.242Z,98635.66
2023-04-21T12:42:01.757Z,98634.00
2023-04-21T12:44:30.282Z,98630.22
2023-04-21T12:47:00.327Z,98626.59
2023-04-21T12:49:29.054Z,98625.25
2023-04-21T12:51:57.529Z,98618.16
2023-04-21T12:54:25.949Z,98621.28
2023-04-21T12:56:54.090Z,98618.22
2023-04-21T12:59:22.545Z,98606.75
2023-04-21T13:01:52.136Z,98606.66
2023-04-21T13:04:23.097Z,98603.38
2023-04-21T13:06:51.663Z,98607.97
2023-04-21T13:09:20.111Z,98609.19
2023-04-21T13:11:48.361Z,98606.38
2023-04-21T13:14:18.110Z,98593.13
2023-04-21T13:16:46.615Z,98586.00
2023-04-21T13:19:15.317Z,98586.03
2023-04-21T13:21:45.546Z,98585.41
2023-04-21T13:24:14.912Z,98586.09
2023-04-21T13:26:44.199Z,98579.06
2023-04-21T13:29:12.311Z,98578.91
2023-04-21T13:31:40.965Z,98569.47
2023-04-21T13:34:09.100Z,98569.38
2023-04-21T13:36:37.594Z,98570.75
2023-04-21T13:39:10.885Z,98558.16
2023-04-21T13:41:39.017Z,98556.91
2023-04-21T13:44:07.166Z,98556.19
2023-04-21T13:46:35.340Z,98554.78
2023-04-21T13:49:03.884Z,98558.50
2023-04-21T13:51:32.489Z,98565.91
2023-04-21T13:54:01.089Z,98550.66
2023-04-21T13:56:30.604Z,98541.56
2023-04-21T13:58:59.601Z,98536.81
2023-04-21T14:01:27.805Z,98534.78
2023-04-21T14:03:57.620Z,98530.50
2023-04-21T14:06:27.480Z,98535.00
2023-04-21T14:08:56.126Z,98527.72
2023-04-21T14:11:24.517Z,98528.84
2023-04-21T14:14:09.000Z,98527.13
2023-04-21T14:16:37.753Z,98519.06
2023-04-21T14:19:06.343Z,98512.34
2023-04-21T14:21:34.851Z,98508.94
2023-04-21T14:24:03.296Z,98494.50
2023-04-21T14:26:32.036Z,98498.06
2023-04-21T14:29:03.189Z,98485.50
2023-04-21T14:31:32.355Z,98493.91
2023-04-21T14:34:00.758Z,98489.50
2023-04-21T14:36:28.939Z,98479.13
2023-04-21T14:38:57.084Z,98485.06
2023-04-21T14:41:25.338Z,98470.84
2023-04-21T14:43:56.700Z,98464.34
2023-04-21T14:46:26.677Z,98464.84
2023-04-21T14:48:56.388Z,98466.19
2023-04-21T14:51:24.621Z,98473.66
2023-04-21T14:53:52.748Z,98466.94
2023-04-21T14:56:20.829Z,98463.59
2023-04-21T14:58:48.971Z,98457.97
2023-04-21T15:01:17.276Z,98462.41
2023-04-21T15:03:47.199Z,98452.38
2023-04-21T15:06:16.291Z,98448.50
2023-04-21T15:08:46.643Z,98434.63
2023-04-21T15:11:15.489Z,98436.97
2023-04-21T15:13:43.711Z,98433.13
2023-04-21T15:16:11.929Z,98429.66
2023-04-21T15:18:40.115Z,98425.31
2023-04-21T15:21:09.633Z,98427.28
2023-04-21T15:23:38.061Z,98421.97
2023-04-21T15:26:06.431Z,98413.19
2023-04-21T15:28:36.114Z,98411.47
2023-04-21T15:31:04.297Z,98406.91
2023-04-21T15:33:32.992Z,98406.94
2023-04-21T15:36:01.161Z,98409.00
2023-04-21T15:38:30.782Z,98406.03
2023-04-21T15:41:00.771Z,98402.22
2023-04-21T15:43:35.229Z,98406.53
2023-04-21T15:46:03.368Z,98406.31
2023-04-21T15:48:31.684Z,98409.81
2023-04-21T15:50:59.803Z,98394.84
2023-04-21T15:53:28.382Z,98388.09
2023-04-21T15:55:57.832Z,98390.00
2023-04-21T15:58:26.531Z,98385.47
2023-04-21T16:00:54.794Z,98380.53
2023-04-21T16:03:23.155Z,98379.28
2023-04-21T16:05:51.556Z,98378.03
2023-04-21T16:08:19.890Z,98375.63
2023-04-21T16:10:48.223Z,98379.00
2023-04-21T16:13:17.912Z,98371.31
2023-04-21T16:15:46.241Z,98362.22
2023-04-21T16:18:14.428Z,98365.44
2023-04-21T16:20:44.128Z,98372.66
2023-04-21T16:23:12.232Z,98362.81
2023-04-21T16:25:40.762Z,98363.97
2023-04-21T16:28:11.611Z,98356.19
2023-04-21T16:30:43.957Z,98346.59
2023-04-21T16:33:13.286Z,98351.69
2023-04-21T16:35:44.585Z,98344.81
2023-04-21T16:38:13.116Z,98345.50
2023-04-21T16:40:41.229Z,98341.69
2023-04-21T16:43:09.618Z,98342.25
2023-04-21T16:45:38.200Z,98330.16
2023-04-21T16:48:08.375Z,98333.19
2023-04-21T16:50:36.684Z,98324.72
2023-04-21T16:53:04.792Z,98321.81
2023-04-21T16:55:32.819Z,98325.38
2023-04-21T16:58:01.000Z,98318.47
2023-04-21T17:00:30.428Z,98309.72
2023-04-21T17:02:58.849Z,98317.56
2023-04-21T17:05:28.730Z,98317.06
2023-04-21T17:07:56.884Z,98316.06
2023-04-21T17:10:27.114Z,98300.94
2023-04-21T17:12:55.271Z,98304.19
2023-04-21T17:15:23.734Z,98305.38
2023-04-21T17:17:51.986Z,98296.19
2023-04-21T17:20:20.182Z,98296.38
2023-04-21T17:22:50.122Z,98296.81
2023-04-21T17:25:18.270Z,98293.41
2023-04-21T17:27:46.629Z,98294.06
2023-04-21T17:30:17.128Z,98299.31
2023-04-21T17:32:45.400Z,98296.72
2023-04-21T17:35:13.611Z,98296.75
2023-04-21T17:37:44.374Z,98297.56
2023-04-21T17:40:14.752Z,98305.88
2023-04-21T17:42:43.186Z,98314.00
2023-04-21T17:45:12.189Z,98323.78
2023-04-21T17:47:40.893Z,98319.06
2023-04-21T17:50:11.852Z,98322.59
2023-04-21T17:52:40.406Z,98323.84
2023-04-21T17:55:09.394Z,98327.88
2023-04-21T17:57:40.247Z,98331.50
2023-04-21T18:00:11.614Z,98324.53
2023-04-21T18:02:39.991Z,98326.84
2023-04-21T18:05:09.500Z,98330.28
2023-04-21T18:07:37.931Z,98333.97
2023-04-21T18:10:07.276Z,98344.66
2023-04-21T18:12:35.844Z,98333.09
2023-04-21T18:15:07.662Z,98338.31
2023-04-21T18:17:37.283Z,98327.44
2023-04-21T18:20:06.371Z,98338.66
2023-04-21T18:22:35.671Z,98330.53
2023-04-21T18:25:04.269Z,98327.91
2023-04-21T18:27:32.444Z,98332.13
2023-04-21T18:30:00.839Z,98326.78
2023-04-21T18:32:33.819Z,98330.47
2023-04-21T18:35:02.455Z,98331.81
2023-04-21T18:37:32.315Z,98335.88
2023-04-21T18:40:00.960Z,98332.75
2023-04-21T18:42:29.452Z,98338.16
2023-04-21T18:44:58.693Z,98330.78
2023-04-21T18:47:28.032Z,98340.13
2023-04-21T18:50:00.358Z,98346.69
2023-04-21T18:52:28.748Z,98353.63
2023-04-21T18:54:56.934Z,98351.47
2023-04-21T18:57:25.956Z,98368.50
2023-04-21T18:59:54.791Z,98363.78
2023-04-21T19:02:23.097Z,98365.50
2023-04-21T19:04:51.569Z,98373.94
2023-04-21T19:07:22.149Z,98374.53
2023-04-21T19:09:52.364Z,98369.25
2023-04-21T19:12:21.959Z,98367.38
2023-04-21T19:14:50.945Z,98364.28
2023-04-21T19:17:19.349Z,98368.38
2023-04-21T19:19:47.648Z,98363.56
2023-04-21T19:22:16.080Z,98367.63
2023-04-21T19:24:45.692Z,98373.13
2023-04-21T19:27:14.387Z,98373.28
2023-04-21T19:29:43.017Z,98371.75
2023-04-21T19:32:11.374Z,98369.06
2023-04-21T19:34:40.113Z,98365.72
2023-04-21T19:37:08.962Z,98378.94
2023-04-21T19:39:37.238Z,98381.25
2023-04-21T19:42:07.071Z,98391.47
2023-04-21T19:44:35.779Z,98378.44
2023-04-21T19:47:04.683Z,98385.75
2023-04-21T19:49:32.954Z,98383.47
2023-04-21T19:52:01.396Z,98388.09
2023-04-21T19:54:29.743Z,98388.81
2023-04-21T19:56:58.077Z,98378.06
2023-04-21T19:59:27.905Z,98382.28
2023-04-21T20:01:56.108Z,98388.38
2023-04-21T20:04:24.520Z,98395.06
2023-04-21T20:06:52.927Z,98397.78
2023-04-21T20:09:21.060Z,98397.06
2023-04-21T20:11:49.550Z,98399.34
2023-04-21T20:14:19.395Z,98405.66
2023-04-21T20:16:50.275Z,98398.28
2023-04-21T20:19:18.481Z,98403.94
2023-04-21T20:21:46.593Z,98417.06
2023-04-21T20:24:14.796Z,98408.25
2023-04-21T20:26:42.948Z,98418.03
2023-04-21T20:29:11.249Z,98417.91
2023-04-21T20:31:41.689Z,98413.47
2023-04-21T20:34:12.124Z,98411.19
2023-04-21T20:36:41.793Z,98410.66
2023-04-21T20:39:10.118Z,98409.19
2023-04-21T20:41:39.099Z,98404.53
2023-04-21T20:44:07.387Z,98405.16
2023-04-21T20:46:35.634Z,98403.06
2023-04-21T20:49:04.599Z,98406.22
2023-04-21T20:51:34.458Z,98401.47
2023-04-21T20:54:02.653Z,98402.88
2023-04-21T20:56:32.315Z,98398.44
2023-04-21T20:59:00.739Z,98402.22
2023-04-21T21:01:30.656Z,98407.03
2023-04-21T21:04:01.375Z,98391.66
2023-04-21T21:06:30.217Z,98407.66
2023-04-21T21:09:01.103Z,98411.72
2023-04-21T21:11:29.557Z,98420.63
2023-04-21T21:13:58.823Z,98413.63
2023-04-21T21:16:27.314Z,98409.72
2023-04-21T21:18:55.418Z,98423.19
2023-04-21T21:21:23.787Z,98425.47
2023-04-21T21:23:52.196Z,98430.78
2023-04-21T21:26:22.495Z,98433.59
2023-04-21T21:28:50.889Z,98444.69
2023-04-21T21:31:19.209Z,98430.38
2023-04-21T21:33:47.359Z,98441.19
2023-04-21T21:36:15.770Z,98445.13
2023-04-21T21:38:44.094Z,98449.34
2023-04-21T21:41:12.877Z,98426.72
2023-04-21T21:43:42.513Z,98429.97
2023-04-21T21:46:13.665Z,98431.06
2023-04-21T21:48:42.716Z,98423.91
2023-04-21T21:51:11.264Z,98420.25
2023-04-21T21:53:39.499Z,98428.25
2023-04-21T21:56:07.961Z,98419.72
2023-04-21T21:58:36.400Z,98416.22
2023-04-21T22:01:06.954Z,98416.63
2023-04-21T22:03:36.328Z,98412.56
2023-04-21T22:06:05.326Z,98414.66
2023-04-21T22:08:33.660Z,98396.31
2023-04-21T22:11:06.031Z,98396.88
2023-04-21T22:13:34.147Z,98398.41
2023-04-21T22:16:02.981Z,98410.59
2023-04-21T22:18:32.804Z,98403.44
2023-04-21T22:21:01.446Z,98403.72
2023-04-21T22:23:29.822Z,98391.25
2023-04-21T22:25:58.027Z,98408.19
2023-04-21T22:28:26.367Z,98403.50
2023-04-21T22:30:54.532Z,98415.13
2023-04-21T22:33:24.354Z,98425.63
2023-04-21T22:35:54.482Z,98419.78
2023-04-21T22:38:22.601Z,98422.38
2023-04-21T22:40:50.658Z,98421.31
2023-04-21T22:43:21.191Z,98424.50
2023-04-21T22:45:51.879Z,98429.13
2023-04-21T22:48:20.131Z,98436.72
2023-04-21T22:50:48.204Z,98447.22
2023-04-21T22:53:18.058Z,98452.28
2023-04-21T22:55:46.308Z,98455.44
2023-04-21T22:58:15.740Z,98454.03
2023-04-21T23:00:45.239Z,98452.78
2023-04-21T23:03:13.651Z,98444.13
2023-04-21T23:05:42.487Z,98443.81
2023-04-21T23:08:10.712Z,98436.19
2023-04-21T23:10:40.692Z,98436.53
2023-04-21T23:13:08.740Z,98436.13
2023-04-21T23:15:37.189Z,98442.13
2023-04-21T23:18:05.586Z,98439.13
2023-04-21T23:20:34.006Z,98444.97
2023-04-21T23:23:03.307Z,98448.59
2023-04-21T23:25:32.051Z,98444.84
2023-04-21T23:28:02.575Z,98450.94
2023-04-21T23:30:30.909Z,98446.16
2023-04-21T23:32:59.538Z,98448.50
2023-04-21T23:35:29.217Z,98440.78
2023-04-21T23:37:57.519Z,98452.75
2023-04-21T23:40:26.215Z,98435.47
2023-04-21T23:42:54.627Z,98446.31
2023-04-21T23:45:24.160Z,98442.97
2023-04-21T23:47:52.710Z,98446.59
2023-04-21T23:50:21.013Z,98453.38
2023-04-21T23:52:51.098Z,98442.03
2023-04-21T23:55:19.646Z,98455.31
2023-04-21T23:57:48.014Z,98454.84
